createdAt,value
2018-09-30T00:00:21.798Z,101864.53
2018-09-30T00:02:48.526Z,101862.93
2018-09-30T00:05:15.203Z,101867.13
2018-09-30T00:07:41.861Z,101862.27
2018-09-30T00:10:08.536Z,101860.97
2018-09-30T00:12:36.334Z,101857.11
2018-09-30T00:15:03.820Z,101858.68
2018-09-30T00:17:30.482Z,101860.88
2018-09-30T00:19:57.145Z,101853.83
2018-09-30T00:22:24.686Z,101854.10
2018-09-30T00:24:56.918Z,101848.67
2018-09-30T00:27:23.589Z,101846.50
2018-09-30T00:29:50.261Z,101846.74
2018-09-30T00:32:16.919Z,101844.58
2018-09-30T00:34:43.577Z,101835.28
2018-09-30T00:37:10.236Z,101834.27
2018-09-30T00:39:36.898Z,101833.09
2018-09-30T00:42:03.549Z,101838.55
2018-09-30T00:44:30.217Z,101829.59
2018-09-30T00:46:57.842Z,101829.09
2018-09-30T00:49:25.481Z,101829.45
2018-09-30T00:51:53.025Z,101824.14
2018-09-30T00:54:19.726Z,101819.20
2018-09-30T00:56:47.288Z,101823.45
2018-09-30T00:59:14.009Z,101816.00
2018-09-30T01:12:37.037Z,101796.04
2018-09-30T01:15:03.747Z,101794.67
2018-09-30T01:17:30.407Z,101797.47
2018-09-30T01:19:58.078Z,101792.86
2018-09-30T01:22:25.610Z,101791.20
2018-09-30T01:24:52.261Z,101792.29
2018-09-30T01:27:18.962Z,101785.66
2018-09-30T01:29:45.625Z,101789.03
2018-09-30T01:32:12.332Z,101778.20
2018-09-30T01:34:38.992Z,101778.78
2018-09-30T01:37:06.702Z,101773.22
2018-09-30T01:39:34.268Z,101768.15
2018-09-30T01:42:01.908Z,101764.17
2018-09-30T01:44:28.604Z,101760.31
2018-09-30T01:46:55.317Z,101756.09
2018-09-30T01:49:23.089Z,101762.50
2018-09-30T01:51:55.428Z,101756.70
2018-09-30T01:54:22.077Z,101745.37
2018-09-30T01:56:49.554Z,101750.09
2018-09-30T01:59:17.042Z,101745.39
2018-09-30T02:01:44.676Z,101746.36
2018-09-30T02:04:11.354Z,101744.89
2018-09-30T02:06:38.070Z,101747.27
2018-09-30T02:09:05.822Z,101744.50
2018-09-30T02:11:33.501Z,101742.81
2018-09-30T02:14:00.206Z,101743.30
2018-09-30T02:16:26.861Z,101739.58
2018-09-30T02:18:54.450Z,101737.99
2018-09-30T02:21:21.105Z,101732.83
2018-09-30T02:23:47.777Z,101734.98
2018-09-30T02:26:15.397Z,101725.72
2018-09-30T02:28:42.993Z,101719.64
2018-09-30T02:31:10.504Z,101716.65
2018-09-30T02:33:38.112Z,101717.72
2018-09-30T02:36:06.317Z,101708.44
2018-09-30T02:38:32.976Z,101704.84
2018-09-30T02:41:00.476Z,101700.50
2018-09-30T02:43:28.021Z,101686.39
2018-09-30T02:45:55.682Z,101685.78
2018-09-30T02:48:22.329Z,101683.75
2018-09-30T02:50:49.017Z,101680.83
2018-09-30T02:53:16.633Z,101677.11
2018-09-30T02:55:43.298Z,101670.34
2018-09-30T02:58:10.916Z,101669.16
2018-09-30T03:00:38.513Z,101669.01
2018-09-30T03:03:07.677Z,101669.01
2018-09-30T03:05:36.571Z,101666.02
2018-09-30T03:08:08.952Z,101663.72
2018-09-30T03:10:36.413Z,101666.50
2018-09-30T03:13:03.135Z,101660.80
2018-09-30T03:15:30.613Z,101655.50
2018-09-30T03:17:58.117Z,101654.52
2018-09-30T03:20:26.809Z,101653.11
2018-09-30T03:22:53.461Z,101650.59
2018-09-30T03:25:20.145Z,101650.68
2018-09-30T03:27:46.833Z,101651.66
2018-09-30T03:30:13.506Z,101648.86
2018-09-30T03:32:40.203Z,101646.83
2018-09-30T03:35:07.689Z,101644.04
2018-09-30T03:37:34.361Z,101642.43
2018-09-30T03:40:01.862Z,101642.55
2018-09-30T03:42:30.473Z,101639.55
2018-09-30T03:44:57.133Z,101630.28
2018-09-30T03:47:23.805Z,101628.69
2018-09-30T03:49:50.471Z,101621.84
2018-09-30T03:52:17.123Z,101619.07
2018-09-30T03:54:43.781Z,101617.65
2018-09-30T03:57:10.453Z,101620.19
2018-09-30T03:59:37.162Z,101613.06
2018-09-30T04:02:05.594Z,101607.28
2018-09-30T04:04:32.309Z,101599.46
2018-09-30T04:07:00.885Z,101597.65
2018-09-30T04:09:29.553Z,101601.98
2018-09-30T04:11:56.189Z,101602.23
2018-09-30T04:14:22.850Z,101590.30
2018-09-30T04:16:49.550Z,101584.38
2018-09-30T04:19:16.210Z,101578.23
2018-09-30T04:21:42.908Z,101578.59
2018-09-30T04:24:10.385Z,101577.89
2018-09-30T04:26:38.273Z,101569.58
2018-09-30T04:29:05.797Z,101571.04
2018-09-30T04:31:33.852Z,101566.19
2018-09-30T04:34:01.826Z,101569.94
2018-09-30T04:36:29.695Z,101564.50
2018-09-30T04:38:56.506Z,101560.05
2018-09-30T04:41:23.154Z,101558.36
2018-09-30T04:43:49.812Z,101557.16
2018-09-30T04:46:16.477Z,101556.77
2018-09-30T04:48:43.179Z,101557.16
2018-09-30T04:51:09.861Z,101554.51
2018-09-30T04:53:36.646Z,101564.02
2018-09-30T04:56:03.281Z,101559.55
2018-09-30T04:58:30.888Z,101559.81
2018-09-30T05:00:57.528Z,101559.45
2018-09-30T05:03:24.198Z,101556.18
2018-09-30T05:05:50.923Z,101560.03
2018-09-30T05:08:17.547Z,101569.66
2018-09-30T05:10:44.236Z,101567.86
2018-09-30T05:13:11.756Z,101574.73
2018-09-30T05:15:39.328Z,101568.69
2018-09-30T05:18:06.957Z,101573.15
2018-09-30T05:20:35.655Z,101578.59
2018-09-30T05:23:03.252Z,101580.98
2018-09-30T05:25:31.761Z,101583.14
2018-09-30T05:27:59.988Z,101578.72
2018-09-30T05:30:27.608Z,101579.55
2018-09-30T05:32:54.286Z,101581.38
2018-09-30T05:35:21.889Z,101579.30
2018-09-30T05:37:48.540Z,101585.22
2018-09-30T05:40:15.186Z,101583.54
2018-09-30T05:42:42.935Z,101583.39
2018-09-30T05:45:10.500Z,101579.77
2018-09-30T05:47:37.599Z,101575.19
2018-09-30T05:50:05.965Z,101572.67
2018-09-30T05:52:32.704Z,101569.09
2018-09-30T05:55:00.132Z,101573.06
2018-09-30T06:00:05.687Z,101569.89
2018-09-30T06:02:32.396Z,101565.33
2018-09-30T06:05:00.609Z,101555.58
2018-09-30T06:07:27.274Z,101557.50
2018-09-30T06:09:54.854Z,101553.00
2018-09-30T06:12:22.541Z,101546.14
2018-09-30T06:14:50.157Z,101551.32
2018-09-30T06:17:16.800Z,101548.94
2018-09-30T06:19:44.501Z,101544.26
2018-09-30T06:22:11.209Z,101545.93
2018-09-30T06:24:37.912Z,101555.44
2018-09-30T06:27:04.552Z,101560.17
2018-09-30T06:29:31.197Z,101559.55
2018-09-30T06:31:57.883Z,101559.20
2018-09-30T06:34:24.532Z,101562.46
2018-09-30T06:36:51.279Z,101559.91
2018-09-30T06:39:17.939Z,101560.26
2018-09-30T06:41:44.581Z,101559.95
2018-09-30T06:44:11.229Z,101560.33
2018-09-30T06:46:37.876Z,101560.47
2018-09-30T06:49:04.556Z,101565.30
2018-09-30T06:51:31.192Z,101567.09
2018-09-30T06:53:57.880Z,101559.27
2018-09-30T06:56:25.569Z,101559.63
2018-09-30T06:58:53.245Z,101554.45
2018-09-30T07:01:20.931Z,101554.95
2018-09-30T07:03:48.572Z,101547.74
2018-09-30T07:06:16.164Z,101544.48
2018-09-30T07:08:42.800Z,101541.61
2018-09-30T07:11:10.385Z,101537.16
2018-09-30T07:13:39.519Z,101535.73
2018-09-30T07:16:08.590Z,101532.82
2018-09-30T07:18:35.234Z,101531.98
2018-09-30T07:21:02.755Z,101532.82
2018-09-30T07:23:30.202Z,101535.37
2018-09-30T07:25:57.765Z,101530.07
2018-09-30T07:28:24.386Z,101524.41
2018-09-30T07:30:51.143Z,101525.73
2018-09-30T07:33:17.842Z,101518.84
2018-09-30T07:35:45.320Z,101516.58
2018-09-30T07:38:11.981Z,101513.58
2018-09-30T07:40:39.701Z,101520.69
2018-09-30T07:43:08.691Z,101516.45
2018-09-30T07:45:37.412Z,101513.92
2018-09-30T07:48:04.054Z,101508.49
2018-09-30T07:50:31.712Z,101513.81
2018-09-30T07:53:00.163Z,101514.40
2018-09-30T07:55:27.817Z,101514.17
2018-09-30T07:57:55.477Z,101510.54
2018-09-30T08:00:22.460Z,101509.62
2018-09-30T08:02:50.078Z,101509.84
2018-09-30T08:05:17.628Z,101499.25
2018-09-30T08:07:44.268Z,101502.61
2018-09-30T08:10:11.933Z,101503.22
2018-09-30T08:12:39.585Z,101499.72
2018-09-30T08:15:07.567Z,101502.61
2018-09-30T08:17:38.685Z,101502.23
2018-09-30T08:20:06.448Z,101501.64
2018-09-30T08:22:34.036Z,101497.89
2018-09-30T08:25:01.763Z,101496.92
2018-09-30T08:27:29.264Z,101487.87
2018-09-30T08:29:56.897Z,101489.42
2018-09-30T08:32:24.447Z,101487.87
2018-09-30T08:34:51.121Z,101482.22
2018-09-30T08:37:24.521Z,101478.60
2018-09-30T08:39:52.075Z,101476.54
2018-09-30T08:42:19.676Z,101472.71
2018-09-30T08:44:47.364Z,101468.46
2018-09-30T08:47:15.056Z,101468.22
2018-09-30T08:49:41.620Z,101471.02
2018-09-30T08:52:08.309Z,101463.50
2018-09-30T08:54:36.606Z,101456.14
2018-09-30T08:57:03.240Z,101455.92
2018-09-30T08:59:30.945Z,101457.37
2018-09-30T09:01:57.614Z,101456.63
2018-09-30T09:04:24.313Z,101458.70
2018-09-30T09:06:51.780Z,101453.00
2018-09-30T09:09:19.312Z,101448.08
2018-09-30T09:11:46.957Z,101450.25
2018-09-30T09:14:13.605Z,101448.31
2018-09-30T09:16:41.319Z,101452.16
2018-09-30T09:19:08.028Z,101448.19
2018-09-30T09:21:36.708Z,101445.41
2018-09-30T09:24:04.425Z,101438.52
2018-09-30T09:26:32.048Z,101432.62
2018-09-30T09:29:00.769Z,101430.94
2018-09-30T09:31:28.310Z,101425.00
2018-09-30T09:33:55.965Z,101427.52
2018-09-30T09:36:23.472Z,101428.75
2018-09-30T09:38:51.058Z,101423.30
2018-09-30T09:41:18.637Z,101422.68
2018-09-30T09:43:45.363Z,101419.00
2018-09-30T09:46:12.829Z,101418.12
2018-09-30T09:48:39.697Z,101411.00
2018-09-30T09:51:07.094Z,101407.38
2018-09-30T09:53:33.791Z,101409.41
2018-09-30T09:56:00.785Z,101412.80
2018-09-30T09:58:27.444Z,101405.53
2018-09-30T10:00:54.153Z,101404.34
2018-09-30T10:03:20.831Z,101403.16
2018-09-30T10:05:47.507Z,101398.55
2018-09-30T10:08:15.242Z,101398.55
2018-09-30T10:10:41.918Z,101388.80
2018-09-30T10:13:09.032Z,101386.84
2018-09-30T10:15:36.782Z,101384.19
2018-09-30T10:18:03.480Z,101375.48
2018-09-30T10:20:30.825Z,101374.48
2018-09-30T10:22:57.492Z,101368.53
2018-09-30T10:25:24.171Z,101366.58
2018-09-30T10:27:50.831Z,101360.29
2018-09-30T10:30:17.520Z,101356.80
2018-09-30T10:32:44.185Z,101351.94
2018-09-30T10:35:10.833Z,101350.50
2018-09-30T10:37:37.504Z,101348.23
2018-09-30T10:40:05.178Z,101347.73
2018-09-30T10:42:31.826Z,101339.18
2018-09-30T10:44:58.470Z,101333.87
2018-09-30T10:47:25.140Z,101318.18
2018-09-30T10:49:51.885Z,101318.28
2018-09-30T10:52:18.521Z,101314.65
2018-09-30T10:54:46.341Z,101313.11
2018-09-30T10:57:13.920Z,101305.00
2018-09-30T10:59:40.642Z,101302.20
2018-09-30T11:02:07.309Z,101295.13
2018-09-30T11:04:34.824Z,101291.14
2018-09-30T11:07:01.719Z,101290.74
2018-09-30T11:09:30.098Z,101285.81
2018-09-30T11:11:58.127Z,101285.33
2018-09-30T11:14:25.949Z,101274.81
2018-09-30T11:17:00.565Z,101276.52
2018-09-30T11:19:30.103Z,101263.05
2018-09-30T11:21:56.783Z,101263.00
2018-09-30T11:24:23.458Z,101256.36
2018-09-30T11:26:51.532Z,101250.42
2018-09-30T11:29:18.234Z,101242.94
2018-09-30T11:31:45.925Z,101236.09
2018-09-30T11:34:13.569Z,101233.93
2018-09-30T11:36:41.102Z,101230.39
2018-09-30T11:39:08.632Z,101226.52
2018-09-30T11:41:35.350Z,101220.36
2018-09-30T11:44:02.873Z,101217.45
2018-09-30T11:46:30.464Z,101213.23
2018-09-30T11:48:57.141Z,101210.47
2018-09-30T11:51:24.803Z,101197.88
2018-09-30T11:53:51.461Z,101198.77
2018-09-30T11:56:18.947Z,101196.20
2018-09-30T11:58:45.661Z,101184.51
2018-09-30T12:01:12.885Z,101184.95
2018-09-30T12:03:40.341Z,101179.09
2018-09-30T12:06:07.818Z,101177.52
2018-09-30T12:08:34.501Z,101174.47
2018-09-30T12:11:01.169Z,101171.12
2018-09-30T12:13:27.873Z,101172.53
2018-09-30T12:15:54.538Z,101161.77
2018-09-30T12:18:22.233Z,101154.03
2018-09-30T12:20:49.028Z,101146.44
2018-09-30T12:23:15.844Z,101146.09
2018-09-30T12:25:42.590Z,101143.44
2018-09-30T12:28:10.225Z,101138.12
2018-09-30T12:30:37.678Z,101134.77
2018-09-30T12:33:05.189Z,101127.78
2018-09-30T12:35:31.901Z,101129.95
2018-09-30T12:38:00.121Z,101117.70
2018-09-30T12:40:26.769Z,101112.77
2018-09-30T12:42:54.449Z,101114.70
2018-09-30T12:45:21.122Z,101100.59
2018-09-30T12:47:47.899Z,101101.66
2018-09-30T12:50:14.565Z,101097.30
2018-09-30T12:52:42.216Z,101091.88
2018-09-30T12:55:09.833Z,101091.98
2018-09-30T12:57:38.100Z,101083.33
2018-09-30T13:00:07.443Z,101080.91
2018-09-30T13:02:35.053Z,101081.51
2018-09-30T13:05:02.738Z,101077.67
2018-09-30T13:07:30.659Z,101076.69
2018-09-30T13:09:58.293Z,101083.48
2018-09-30T13:12:25.893Z,101076.69
2018-09-30T13:14:53.581Z,101077.67
2018-09-30T13:17:23.854Z,101072.79
2018-09-30T13:19:51.465Z,101066.90
2018-09-30T13:22:19.815Z,101063.64
2018-09-30T13:24:46.455Z,101059.02
2018-09-30T13:27:13.260Z,101066.75
2018-09-30T13:29:39.934Z,101059.08
2018-09-30T13:32:07.506Z,101049.87
2018-09-30T13:34:34.189Z,101040.69
2018-09-30T13:37:00.908Z,101047.82
2018-09-30T13:39:27.577Z,101040.69
2018-09-30T13:41:55.181Z,101040.84
2018-09-30T13:44:21.884Z,101030.06
2018-09-30T13:46:48.545Z,101033.55
2018-09-30T13:49:15.197Z,101026.16
2018-09-30T13:51:42.046Z,101023.80
2018-09-30T13:54:08.741Z,101021.55
2018-09-30T13:56:36.094Z,101013.78
2018-09-30T13:59:02.827Z,101016.94
2018-09-30T14:01:30.193Z,101012.54
2018-09-30T14:03:56.869Z,101012.80
2018-09-30T14:06:23.536Z,101011.33
2018-09-30T14:08:50.213Z,100998.61
2018-09-30T14:11:16.928Z,100993.56
2018-09-30T14:14:00.088Z,100992.11
2018-09-30T14:16:27.733Z,100989.96
2018-09-30T14:18:54.435Z,100983.81
2018-09-30T14:21:21.130Z,100987.80
2018-09-30T14:23:47.797Z,100986.58
2018-09-30T14:26:15.521Z,100986.73
2018-09-30T14:28:43.152Z,100986.32
2018-09-30T14:31:10.906Z,100989.13
2018-09-30T14:33:38.870Z,100986.13
2018-09-30T14:36:07.243Z,100987.11
2018-09-30T14:38:33.921Z,100983.47
2018-09-30T14:41:00.889Z,100981.58
2018-09-30T14:43:27.597Z,100978.16
2018-09-30T14:45:54.249Z,100969.70
2018-09-30T14:48:21.067Z,100963.47
2018-09-30T14:50:48.545Z,100963.47
2018-09-30T14:53:15.233Z,100950.34
2018-09-30T14:55:42.476Z,100949.28
2018-09-30T14:58:16.215Z,100943.33
2018-09-30T15:00:43.837Z,100939.77
2018-09-30T15:03:10.477Z,100943.97
2018-09-30T15:05:39.140Z,100941.05
2018-09-30T15:08:07.933Z,100942.72
2018-09-30T15:10:36.937Z,100940.33
2018-09-30T15:13:03.579Z,100936.50
2018-09-30T15:15:31.220Z,100934.45
2018-09-30T15:17:57.933Z,100933.69
2018-09-30T15:20:25.509Z,100931.80
2018-09-30T15:22:53.164Z,100927.40
2018-09-30T15:25:19.808Z,100923.30
2018-09-30T15:27:47.436Z,100923.64
2018-09-30T15:30:14.125Z,100924.05
2018-09-30T15:32:41.648Z,100927.05
2018-09-30T15:35:10.364Z,100927.20
2018-09-30T15:37:38.744Z,100925.23
2018-09-30T15:40:06.588Z,100923.91
2018-09-30T15:42:34.283Z,100919.58
2018-09-30T15:45:01.916Z,100920.91
2018-09-30T15:47:30.193Z,100915.59
2018-09-30T15:49:57.184Z,100917.19
2018-09-30T15:52:23.953Z,100910.06
2018-09-30T15:54:51.691Z,100908.23
2018-09-30T15:57:19.178Z,100914.84
2018-09-30T15:59:46.837Z,100904.91
2018-09-30T16:02:14.404Z,100904.67
2018-09-30T16:04:41.926Z,100902.73
2018-09-30T16:07:09.544Z,100900.27
2018-09-30T16:09:37.020Z,100898.27
2018-09-30T16:12:04.521Z,100889.80
2018-09-30T16:14:31.152Z,100894.63
2018-09-30T16:16:57.805Z,100887.80
2018-09-30T16:19:24.444Z,100889.23
2018-09-30T16:21:51.099Z,100880.73
2018-09-30T16:24:17.788Z,100883.73
2018-09-30T16:26:44.445Z,100886.66
2018-09-30T16:29:11.104Z,100884.42
2018-09-30T16:31:37.760Z,100882.48
2018-09-30T16:34:04.393Z,100876.34
2018-09-30T16:36:31.042Z,100879.27
2018-09-30T16:38:57.681Z,100878.09
2018-09-30T16:41:24.389Z,100874.78
2018-09-30T16:43:51.891Z,100877.64
2018-09-30T16:46:18.545Z,100876.46
2018-09-30T16:48:46.299Z,100872.40
2018-09-30T16:51:12.944Z,100872.13
2018-09-30T16:53:39.593Z,100875.42
2018-09-30T16:56:07.008Z,100878.13
2018-09-30T16:58:33.664Z,100878.62
2018-09-30T17:01:01.400Z,100877.52
2018-09-30T17:03:28.052Z,100871.37
2018-09-30T17:05:54.789Z,100875.77
2018-09-30T17:08:22.484Z,100875.77
2018-09-30T17:10:50.144Z,100879.27
2018-09-30T17:13:17.729Z,100877.86
2018-09-30T17:15:44.376Z,100875.05
2018-09-30T17:18:11.024Z,100869.74
2018-09-30T17:20:37.683Z,100874.86
2018-09-30T17:23:04.336Z,100879.03
2018-09-30T17:25:30.976Z,100880.66
2018-09-30T17:27:57.952Z,100879.03
2018-09-30T17:30:24.617Z,100876.88
2018-09-30T17:32:51.278Z,100876.88
2018-09-30T17:35:17.953Z,100870.04
2018-09-30T17:37:44.695Z,100872.13
2018-09-30T17:40:11.386Z,100869.47
2018-09-30T17:42:39.052Z,100865.57
2018-09-30T17:45:06.509Z,100867.81
2018-09-30T17:47:34.062Z,100865.08
2018-09-30T17:50:01.945Z,100873.66
2018-09-30T17:52:30.403Z,100876.19
2018-09-30T17:54:57.048Z,100870.95
2018-09-30T17:57:24.496Z,100871.64
2018-09-30T17:59:52.196Z,100871.56
2018-09-30T18:02:18.893Z,100871.42
2018-09-30T18:04:45.533Z,100865.20
2018-09-30T18:07:13.228Z,100866.67
2018-09-30T18:09:40.658Z,100868.00
2018-09-30T18:12:07.342Z,100864.29
2018-09-30T18:14:33.984Z,100858.14
2018-09-30T18:17:02.437Z,100858.44
2018-09-30T18:19:30.600Z,100859.12
2018-09-30T18:21:58.312Z,100855.30
2018-09-30T18:24:25.970Z,100857.61
2018-09-30T18:26:52.676Z,100857.61
2018-09-30T18:29:19.364Z,100856.63
2018-09-30T18:31:46.988Z,100856.74
2018-09-30T18:34:14.464Z,100860.27
2018-09-30T18:36:41.114Z,100851.31
2018-09-30T18:39:08.068Z,100855.38
2018-09-30T18:41:34.750Z,100856.70
2018-09-30T18:44:02.045Z,100857.05
2018-09-30T18:46:28.738Z,100850.83
2018-09-30T18:48:55.413Z,100856.81
2018-09-30T18:51:22.058Z,100849.84
2018-09-30T18:53:48.741Z,100852.30
2018-09-30T18:56:16.439Z,100849.98
2018-09-30T18:58:44.116Z,100853.33
2018-09-30T19:01:10.865Z,100847.03
2018-09-30T19:03:37.946Z,100855.48
2018-09-30T19:06:06.597Z,100850.03
2018-09-30T19:08:34.197Z,100844.68
2018-09-30T19:11:02.241Z,100844.19
2018-09-30T19:13:29.893Z,100842.94
2018-09-30T19:15:56.589Z,100842.86
2018-09-30T19:18:23.250Z,100843.89
2018-09-30T19:20:49.917Z,100840.97
2018-09-30T19:23:16.562Z,100835.93
2018-09-30T19:25:43.196Z,100837.55
2018-09-30T19:28:09.836Z,100832.59
2018-09-30T19:30:37.797Z,100828.61
2018-09-30T19:33:06.018Z,100827.02
2018-09-30T19:35:33.552Z,100822.31
2018-09-30T19:38:01.251Z,100820.00
2018-09-30T19:40:28.728Z,100811.51
2018-09-30T19:42:56.417Z,100807.16
2018-09-30T19:45:23.862Z,100810.03
2018-09-30T19:47:51.381Z,100800.25
2018-09-30T19:50:18.022Z,100802.00
2018-09-30T19:52:44.725Z,100790.70
2018-09-30T19:55:12.355Z,100795.14
2018-09-30T19:57:40.049Z,100794.04
2018-09-30T20:00:07.712Z,100785.39
2018-09-30T20:02:34.396Z,100783.08
2018-09-30T20:05:01.206Z,100787.13
2018-09-30T20:07:28.732Z,100782.31
2018-09-30T20:09:56.237Z,100781.45
2018-09-30T20:12:23.709Z,100781.83
2018-09-30T20:14:50.344Z,100777.44
2018-09-30T20:17:16.981Z,100781.75
2018-09-30T20:19:43.624Z,100776.52
2018-09-30T20:22:11.212Z,100777.62
2018-09-30T20:24:37.857Z,100775.47
2018-09-30T20:27:06.839Z,100778.12
2018-09-30T20:29:33.745Z,100776.08
2018-09-30T20:32:01.304Z,100775.31
2018-09-30T20:34:29.773Z,100770.23
2018-09-30T20:36:56.490Z,100763.45
2018-09-30T20:39:23.996Z,100767.28
2018-09-30T20:41:50.662Z,100773.80
2018-09-30T20:44:17.361Z,100769.52
2018-09-30T20:46:44.810Z,100763.79
2018-09-30T20:49:11.512Z,100762.27
2018-09-30T20:51:38.184Z,100763.94
2018-09-30T20:54:06.481Z,100757.23
2018-09-30T20:56:33.948Z,100755.48
2018-09-30T20:59:01.134Z,100746.20
2018-09-30T21:01:27.896Z,100739.00
2018-09-30T21:03:55.414Z,100740.48
2018-09-30T21:06:23.746Z,100740.06
2018-09-30T21:08:50.435Z,100736.23
2018-09-30T21:11:18.185Z,100738.73
2018-09-30T21:13:45.829Z,100729.67
2018-09-30T21:16:14.068Z,100731.95
2018-09-30T21:18:42.067Z,100726.30
2018-09-30T21:21:09.616Z,100728.46
2018-09-30T21:23:36.901Z,100720.66
2018-09-30T21:26:04.467Z,100730.09
2018-09-30T21:28:31.945Z,100717.78
2018-09-30T21:31:00.348Z,100719.31
2018-09-30T21:33:27.019Z,100725.20
2018-09-30T21:35:54.514Z,100717.25
2018-09-30T21:38:21.195Z,100718.08
2018-09-30T21:40:48.740Z,100708.80
2018-09-30T21:43:17.413Z,100716.27
2018-09-30T21:45:44.841Z,100716.16
2018-09-30T21:48:13.417Z,100711.84
2018-09-30T21:50:41.008Z,100712.78
2018-09-30T21:53:08.596Z,100708.55
2018-09-30T21:55:36.284Z,100707.96
2018-09-30T21:58:02.924Z,100706.64
2018-09-30T22:00:36.372Z,100706.38
2018-09-30T22:03:03.809Z,100703.89
2018-09-30T22:05:31.408Z,100705.41
2018-09-30T22:07:58.152Z,100701.50
2018-09-30T22:10:25.617Z,100696.61
2018-09-30T22:12:52.251Z,100695.14
2018-09-30T22:15:19.873Z,100690.89
2018-09-30T22:17:46.519Z,100683.61
2018-09-30T22:20:13.949Z,100693.61
2018-09-30T22:22:41.549Z,100685.99
2018-09-30T22:25:08.236Z,100692.13
2018-09-30T22:27:35.928Z,100685.09
2018-09-30T22:30:04.049Z,100684.03
2018-09-30T22:32:32.436Z,100681.27
2018-09-30T22:35:01.377Z,100675.13
2018-09-30T22:37:28.833Z,100669.94
2018-09-30T22:39:56.513Z,100672.97
2018-09-30T22:42:24.216Z,100674.63
2018-09-30T22:44:51.790Z,100665.47
2018-09-30T22:47:19.544Z,100665.21
2018-09-30T22:49:47.121Z,100667.44
2018-09-30T22:52:14.805Z,100665.43
2018-09-30T22:54:42.265Z,100662.22
2018-09-30T22:57:09.967Z,100664.87
2018-09-30T22:59:37.640Z,100664.16
2018-09-30T23:02:04.327Z,100664.11
2018-09-30T23:04:32.281Z,100664.63
2018-09-30T23:06:58.936Z,100662.62
2018-09-30T23:09:26.541Z,100663.80
2018-09-30T23:11:53.329Z,100665.47
2018-09-30T23:14:19.977Z,100659.14
2018-09-30T23:16:46.629Z,100661.30
2018-09-30T23:19:13.264Z,100661.58
2018-09-30T23:21:40.753Z,100661.23
2018-09-30T23:24:08.192Z,100660.55
2018-09-30T23:26:34.830Z,100661.38
2018-09-30T23:29:01.481Z,100661.88
2018-09-30T23:31:28.982Z,100658.09
2018-09-30T23:33:56.633Z,100655.78
2018-09-30T23:36:23.272Z,100655.78
2018-09-30T23:38:50.849Z,100650.28
2018-09-30T23:41:17.500Z,100648.73
2018-09-30T23:43:44.137Z,100644.19
2018-09-30T23:46:10.777Z,100644.00
2018-09-30T23:48:37.957Z,100644.34
2018-09-30T23:51:04.755Z,100635.41
2018-09-30T23:53:31.400Z,100642.59
2018-09-30T23:55:59.781Z,100632.97
2018-09-30T23:58:26.435Z,100635.62
